createdAt,value
2023-03-27T00:02:24.087Z,99.90
2023-03-27T00:04:50.857Z,99.90
2023-03-27T00:07:19.919Z,99.90
2023-03-27T00:09:46.626Z,99.90
2023-03-27T00:12:13.328Z,99.90
2023-03-27T00:14:42.149Z,99.90
2023-03-27T00:17:09.396Z,99.90
2023-03-27T00:19:38.686Z,99.90
2023-03-27T00:22:10.704Z,99.90
2023-03-27T00:24:37.453Z,99.90
2023-03-27T00:27:04.239Z,99.90
2023-03-27T00:29:33.410Z,99.90
2023-03-27T00:32:00.172Z,99.90
2023-03-27T00:34:27.099Z,99.90
2023-03-27T00:36:53.751Z,99.90
2023-03-27T00:39:23.677Z,99.90
2023-03-27T00:41:55.285Z,99.90
2023-03-27T00:44:27.298Z,99.90
2023-03-27T00:46:55.225Z,99.90
2023-03-27T00:49:23.777Z,99.90
2023-03-27T00:51:53.082Z,99.90
2023-03-27T00:54:26.643Z,99.90
2023-03-27T00:57:08.523Z,99.90
2023-03-27T00:59:40.833Z,99.90
2023-03-27T01:02:09.270Z,99.90
2023-03-27T01:04:40.277Z,99.90
2023-03-27T01:07:11.163Z,99.90
2023-03-27T01:09:38.765Z,99.90
2023-03-27T01:12:26.502Z,99.90
2023-03-27T01:15:20.143Z,99.90
2023-03-27T01:18:04.740Z,99.90
2023-03-27T01:21:05.893Z,99.90
2023-03-27T01:23:59.616Z,99.90
2023-03-27T01:26:51.599Z,99.90
2023-03-27T01:29:48.438Z,99.90
2023-03-27T01:32:59.337Z,99.90
2023-03-27T01:35:43.488Z,99.90
2023-03-27T01:38:44.021Z,99.90
2023-03-27T01:41:32.481Z,99.90
2023-03-27T01:44:21.987Z,99.90
2023-03-27T01:46:59.334Z,99.90
2023-03-27T01:49:34.113Z,99.90
2023-03-27T01:52:05.455Z,99.90
2023-03-27T01:54:35.984Z,99.90
2023-03-27T01:57:22.248Z,99.90
2023-03-27T02:00:17.308Z,99.90
2023-03-27T02:03:09.862Z,99.90
2023-03-27T02:05:44.451Z,99.90
2023-03-27T02:08:42.403Z,99.90
2023-03-27T02:11:09.201Z,99.90
2023-03-27T02:13:44.108Z,99.90
2023-03-27T02:16:21.885Z,99.90
2023-03-27T02:18:59.710Z,99.90
2023-03-27T02:21:26.767Z,99.90
2023-03-27T02:23:56.595Z,99.90
2023-03-27T02:26:23.841Z,99.90
2023-03-27T02:28:53.523Z,99.90
2023-03-27T02:31:41.634Z,99.90
2023-03-27T02:34:42.020Z,99.90
2023-03-27T02:37:19.097Z,99.90
2023-03-27T02:39:55.560Z,99.90
2023-03-27T02:42:42.556Z,99.90
2023-03-27T02:45:20.098Z,99.90
2023-03-27T02:47:57.180Z,99.90
2023-03-27T02:50:38.247Z,99.90
2023-03-27T02:53:06.700Z,99.90
2023-03-27T02:55:40.221Z,99.90
2023-03-27T02:58:12.439Z,99.90
2023-03-27T03:00:43.714Z,99.90
2023-03-27T03:03:18.006Z,99.90
2023-03-27T03:05:48.096Z,99.90
2023-03-27T03:10:45.973Z,99.90
2023-03-27T03:13:12.725Z,99.90
2023-03-27T03:15:41.880Z,99.90
2023-03-27T03:18:09.135Z,99.90
2023-03-27T03:20:35.846Z,99.90
2023-03-27T03:23:02.785Z,99.90
2023-03-27T03:25:33.616Z,99.90
2023-03-27T03:28:02.891Z,99.90
2023-03-27T03:30:32.550Z,99.90
2023-03-27T03:33:00.222Z,99.90
2023-03-27T03:35:29.224Z,99.90
2023-03-27T03:37:59.292Z,99.90
2023-03-27T03:40:28.250Z,99.90
2023-03-27T03:42:57.310Z,99.90
2023-03-27T03:45:24.077Z,99.90
2023-03-27T03:47:50.780Z,99.90
2023-03-27T03:50:17.556Z,99.90
2023-03-27T03:52:46.058Z,99.90
2023-03-27T03:55:12.895Z,99.90
2023-03-27T03:57:42.073Z,99.90
2023-03-27T04:00:12.050Z,99.90
2023-03-27T04:02:43.510Z,99.90
2023-03-27T04:05:15.337Z,99.90
2023-03-27T04:07:42.295Z,99.90
2023-03-27T04:10:09.489Z,99.90
2023-03-27T04:12:36.158Z,99.90
2023-03-27T04:15:04.977Z,99.90
2023-03-27T04:17:34.210Z,99.90
2023-03-27T04:20:05.920Z,99.90
2023-03-27T04:22:37.846Z,99.90
2023-03-27T04:25:10.393Z,99.90
2023-03-27T04:27:39.708Z,99.90
2023-03-27T04:30:10.789Z,99.90
2023-03-27T04:32:37.472Z,99.90
2023-03-27T04:35:04.847Z,99.90
2023-03-27T04:37:34.021Z,99.90
2023-03-27T04:40:00.864Z,99.90
2023-03-27T04:42:30.068Z,99.90
2023-03-27T04:44:59.032Z,99.90
2023-03-27T04:47:25.700Z,99.90
2023-03-27T04:49:54.871Z,99.90
2023-03-27T04:52:21.531Z,99.90
2023-03-27T04:54:48.304Z,99.90
2023-03-27T04:57:16.969Z,99.90
2023-03-27T04:59:43.636Z,99.90
2023-03-27T05:02:10.968Z,99.90
2023-03-27T05:04:40.092Z,99.90
2023-03-27T05:07:06.833Z,99.90
2023-03-27T05:09:38.267Z,99.90
2023-03-27T05:12:05.073Z,99.90
2023-03-27T05:14:31.733Z,99.90
2023-03-27T05:17:00.788Z,99.90
2023-03-27T05:19:30.246Z,99.90
2023-03-27T05:21:59.220Z,99.90
2023-03-27T05:24:27.184Z,99.90
2023-03-27T05:26:53.960Z,99.90
2023-03-27T05:29:20.721Z,99.90
2023-03-27T05:31:47.639Z,99.90
2023-03-27T05:34:14.800Z,99.90
2023-03-27T05:36:42.818Z,99.90
2023-03-27T05:39:09.529Z,99.90
2023-03-27T05:41:38.384Z,99.90
2023-03-27T05:44:07.373Z,99.90
2023-03-27T05:46:34.100Z,99.90
2023-03-27T05:49:01.325Z,99.90
2023-03-27T05:51:29.286Z,99.90
2023-03-27T05:53:56.263Z,99.90
2023-03-27T05:56:23.077Z,99.90
2023-03-27T05:58:49.803Z,99.90
2023-03-27T06:01:16.532Z,99.90
2023-03-27T06:03:43.302Z,99.90
2023-03-27T06:06:12.126Z,99.90
2023-03-27T06:08:39.157Z,99.90
2023-03-27T06:11:13.011Z,99.90
2023-03-27T06:13:42.670Z,99.90
2023-03-27T06:16:10.442Z,99.90
2023-03-27T06:18:37.470Z,99.90
2023-03-27T06:21:04.647Z,99.90
2023-03-27T06:23:32.022Z,99.90
2023-03-27T06:25:59.276Z,99.90
2023-03-27T06:28:26.093Z,99.90
2023-03-27T06:30:53.121Z,99.90
2023-03-27T06:33:22.339Z,99.90
2023-03-27T06:35:53.952Z,99.90
2023-03-27T06:38:24.110Z,99.90
2023-03-27T06:40:53.480Z,99.90
2023-03-27T06:45:50.722Z,99.90
2023-03-27T06:48:21.541Z,99.90
2023-03-27T06:50:51.424Z,99.90
2023-03-27T06:53:27.235Z,99.90
2023-03-27T06:55:55.842Z,99.90
2023-03-27T06:58:22.700Z,99.90
2023-03-27T07:00:50.219Z,99.90
2023-03-27T07:03:18.312Z,99.90
2023-03-27T07:05:48.992Z,99.90
2023-03-27T07:08:24.302Z,99.90
2023-03-27T07:11:10.710Z,99.90
2023-03-27T07:13:40.994Z,99.90
2023-03-27T07:16:09.119Z,99.90
2023-03-27T07:18:38.390Z,99.90
2023-03-27T07:21:05.948Z,99.90
2023-03-27T07:23:32.606Z,99.70
2023-03-27T07:26:00.332Z,99.90
2023-03-27T07:28:29.525Z,99.90
2023-03-27T07:30:56.436Z,99.90
2023-03-27T07:33:23.487Z,98.90
2023-03-27T07:35:52.631Z,98.40
2023-03-27T07:38:19.360Z,99.60
2023-03-27T07:40:46.574Z,97.50
2023-03-27T07:43:14.132Z,98.20
2023-03-27T07:45:43.892Z,97.50
2023-03-27T07:48:18.661Z,96.40
2023-03-27T07:50:51.014Z,98.50
2023-03-27T07:53:33.438Z,97.90
2023-03-27T07:56:03.666Z,99.00
2023-03-27T07:58:32.636Z,97.30
2023-03-27T08:01:04.649Z,97.10
2023-03-27T08:03:32.270Z,98.10
2023-03-27T08:06:00.512Z,97.90
2023-03-27T08:08:28.294Z,95.80
2023-03-27T08:11:02.338Z,96.00
2023-03-27T08:13:29.929Z,97.40
2023-03-27T08:16:13.375Z,97.50
2023-03-27T08:18:40.762Z,96.60
2023-03-27T08:21:08.594Z,95.60
2023-03-27T08:23:37.540Z,94.70
2023-03-27T08:26:09.089Z,95.30
2023-03-27T08:28:37.453Z,95.30
2023-03-27T08:31:13.846Z,94.60
2023-03-27T08:33:44.115Z,94.10
2023-03-27T08:36:14.527Z,93.60
2023-03-27T08:38:43.189Z,92.90
2023-03-27T08:41:28.005Z,92.40
2023-03-27T08:43:57.197Z,91.40
2023-03-27T08:46:28.977Z,91.40
2023-03-27T08:49:09.810Z,91.40
2023-03-27T08:51:52.580Z,90.90
2023-03-27T08:54:26.679Z,90.50
2023-03-27T08:56:55.833Z,90.00
2023-03-27T08:59:25.422Z,89.20
2023-03-27T09:02:16.482Z,87.40
2023-03-27T09:04:51.681Z,87.80
2023-03-27T09:07:39.213Z,87.70
2023-03-27T09:10:21.288Z,86.30
2023-03-27T09:12:54.459Z,84.90
2023-03-27T09:15:32.105Z,85.60
2023-03-27T09:20:33.295Z,85.60
2023-03-27T09:23:13.460Z,84.30
2023-03-27T09:25:47.086Z,83.30
2023-03-27T09:28:30.820Z,83.20
2023-03-27T09:31:18.673Z,81.80
2023-03-27T09:33:48.075Z,82.20
2023-03-27T09:36:14.867Z,80.70
2023-03-27T09:38:50.640Z,80.90
2023-03-27T09:41:43.896Z,82.00
2023-03-27T09:44:15.445Z,81.60
2023-03-27T09:46:52.293Z,79.20
2023-03-27T09:49:20.874Z,78.70
2023-03-27T09:51:55.448Z,79.10
2023-03-27T09:54:28.918Z,77.60
2023-03-27T09:57:05.090Z,78.20
2023-03-27T09:59:39.242Z,75.80
2023-03-27T10:02:27.735Z,76.20
2023-03-27T10:05:12.154Z,75.10
2023-03-27T10:07:42.624Z,75.40
2023-03-27T10:10:12.134Z,73.40
2023-03-27T10:12:40.134Z,73.00
2023-03-27T10:15:30.437Z,73.20
2023-03-27T10:17:57.672Z,73.60
2023-03-27T10:20:27.442Z,71.00
2023-03-27T10:23:04.198Z,71.50
2023-03-27T10:25:34.300Z,71.50
2023-03-27T10:28:17.209Z,70.60
2023-03-27T10:33:14.122Z,70.50
2023-03-27T10:35:45.657Z,71.30
2023-03-27T10:38:17.570Z,71.80
2023-03-27T10:40:49.697Z,70.50
2023-03-27T10:43:37.586Z,70.20
2023-03-27T10:46:11.521Z,70.00
2023-03-27T10:48:57.096Z,69.70
2023-03-27T10:51:46.550Z,69.00
2023-03-27T10:54:26.818Z,66.70
2023-03-27T10:57:08.306Z,67.90
2023-03-27T10:59:48.560Z,68.30
2023-03-27T11:02:34.080Z,69.30
2023-03-27T11:05:11.155Z,69.50
2023-03-27T11:07:40.508Z,69.90
2023-03-27T11:10:19.418Z,68.60
2023-03-27T11:13:00.975Z,67.90
2023-03-27T11:15:33.981Z,66.50
2023-03-27T11:18:00.736Z,67.80
2023-03-27T11:20:51.894Z,68.10
2023-03-27T11:23:30.313Z,72.80
2023-03-27T11:26:02.537Z,77.40
2023-03-27T11:28:39.536Z,79.20
2023-03-27T11:31:19.044Z,73.10
2023-03-27T11:34:00.060Z,73.60
2023-03-27T11:36:51.427Z,70.30
2023-03-27T11:39:30.341Z,70.80
2023-03-27T11:42:00.012Z,68.50
2023-03-27T11:44:30.382Z,68.30
2023-03-27T11:47:07.409Z,67.90
2023-03-27T11:49:54.670Z,69.20
2023-03-27T11:52:22.076Z,67.40
2023-03-27T11:55:09.996Z,68.90
2023-03-27T11:57:50.981Z,67.80
2023-03-27T12:00:47.497Z,66.50
2023-03-27T12:03:28.458Z,67.30
2023-03-27T12:06:16.685Z,68.80
2023-03-27T12:08:45.474Z,67.10
2023-03-27T12:11:14.902Z,66.70
2023-03-27T12:13:58.211Z,67.90
2023-03-27T12:16:47.258Z,68.70
2023-03-27T12:22:39.142Z,65.80
2023-03-27T12:25:30.729Z,64.40
2023-03-27T12:28:40.764Z,63.70
2023-03-27T12:31:26.144Z,63.80
2023-03-27T12:34:06.137Z,64.70
2023-03-27T12:36:39.314Z,67.60
2023-03-27T12:39:24.324Z,68.20
2023-03-27T12:41:56.179Z,68.50
2023-03-27T12:44:31.552Z,67.40
2023-03-27T12:47:26.079Z,67.90
2023-03-27T12:50:27.319Z,70.60
2023-03-27T12:52:53.977Z,70.90
2023-03-27T12:55:22.819Z,71.40
2023-03-27T12:57:52.101Z,71.50
2023-03-27T13:00:26.346Z,71.10
2023-03-27T13:03:04.421Z,69.80
2023-03-27T13:05:49.820Z,68.90
2023-03-27T13:08:18.932Z,68.20
2023-03-27T13:10:51.483Z,68.60
2023-03-27T13:13:30.286Z,68.90
2023-03-27T13:16:24.034Z,69.80
2023-03-27T13:19:05.463Z,70.10
2023-03-27T13:21:56.846Z,71.00
2023-03-27T13:24:42.370Z,70.40
2023-03-27T13:27:30.217Z,70.60
2023-03-27T13:29:58.652Z,70.70
2023-03-27T13:32:38.787Z,71.30
2023-03-27T13:35:21.032Z,71.10
2023-03-27T13:37:50.966Z,72.10
2023-03-27T13:40:27.196Z,71.70
2023-03-27T13:43:01.161Z,71.80
2023-03-27T13:45:55.323Z,72.00
2023-03-27T13:48:40.917Z,69.30
2023-03-27T13:51:51.828Z,70.10
2023-03-27T13:54:44.624Z,67.90
2023-03-27T13:57:17.226Z,68.60
2023-03-27T14:00:03.175Z,68.30
2023-03-27T14:02:54.151Z,68.60
2023-03-27T14:05:56.889Z,68.90
2023-03-27T14:08:52.215Z,69.70
2023-03-27T14:11:27.540Z,70.30
2023-03-27T14:14:13.816Z,69.40
2023-03-27T14:16:44.947Z,69.80
2023-03-27T14:19:45.779Z,70.00
2023-03-27T14:22:23.493Z,68.80
2023-03-27T14:25:02.515Z,70.10
2023-03-27T14:27:34.496Z,70.60
2023-03-27T14:30:07.720Z,70.00
2023-03-27T14:32:35.519Z,70.20
2023-03-27T14:35:04.741Z,70.70
2023-03-27T14:37:39.535Z,70.50
2023-03-27T14:40:29.642Z,70.10
2023-03-27T14:43:00.771Z,70.40
2023-03-27T14:45:37.438Z,70.60
2023-03-27T14:48:10.375Z,69.30
2023-03-27T14:50:40.630Z,70.20
2023-03-27T14:53:14.123Z,69.90
2023-03-27T14:55:42.491Z,69.40
2023-03-27T14:58:18.370Z,71.10
2023-03-27T15:00:51.781Z,70.80
2023-03-27T15:03:23.026Z,70.80
2023-03-27T15:05:57.721Z,71.00
2023-03-27T15:08:25.845Z,70.40
2023-03-27T15:10:54.152Z,72.20
2023-03-27T15:13:24.652Z,72.40
2023-03-27T15:15:57.049Z,73.20
2023-03-27T15:18:37.916Z,71.90
2023-03-27T15:21:21.648Z,72.00
2023-03-27T15:24:01.355Z,73.20
2023-03-27T15:26:34.928Z,72.80
2023-03-27T15:29:13.816Z,73.60
2023-03-27T15:31:43.336Z,73.60
2023-03-27T15:34:18.959Z,74.00
2023-03-27T15:36:50.306Z,72.90
2023-03-27T15:39:22.716Z,73.10
2023-03-27T15:42:02.028Z,73.70
2023-03-27T15:44:32.161Z,74.20
2023-03-27T15:47:00.392Z,74.20
2023-03-27T15:49:36.941Z,73.20
2023-03-27T15:52:32.471Z,73.70
2023-03-27T15:55:03.985Z,73.50
2023-03-27T15:57:31.204Z,73.20
2023-03-27T16:00:08.506Z,72.30
2023-03-27T16:02:36.095Z,71.90
2023-03-27T16:05:08.334Z,72.10
2023-03-27T16:07:42.453Z,72.50
2023-03-27T16:10:11.217Z,72.30
2023-03-27T16:12:51.883Z,71.10
2023-03-27T16:15:36.469Z,72.90
2023-03-27T16:18:19.456Z,73.10
2023-03-27T16:20:46.189Z,73.60
2023-03-27T16:23:15.350Z,74.40
2023-03-27T16:25:44.680Z,72.90
2023-03-27T16:28:13.799Z,73.30
2023-03-27T16:30:41.955Z,74.10
2023-03-27T16:33:17.190Z,74.10
2023-03-27T16:35:45.306Z,73.50
2023-03-27T16:38:15.612Z,74.10
2023-03-27T16:40:43.286Z,74.20
2023-03-27T16:48:08.296Z,74.60
2023-03-27T16:50:35.216Z,75.40
2023-03-27T16:53:01.992Z,75.20
2023-03-27T16:55:29.672Z,75.80
2023-03-27T16:57:56.501Z,76.10
2023-03-27T17:00:26.683Z,76.70
2023-03-27T17:02:53.717Z,76.40
2023-03-27T17:05:21.245Z,76.50
2023-03-27T17:07:48.202Z,76.80
2023-03-27T17:10:15.379Z,77.20
2023-03-27T17:12:44.518Z,78.50
2023-03-27T17:17:42.613Z,79.00
2023-03-27T17:20:10.501Z,80.40
2023-03-27T17:22:37.262Z,80.60
2023-03-27T17:27:36.882Z,81.70
2023-03-27T17:30:04.934Z,81.60
2023-03-27T17:32:31.726Z,82.10
2023-03-27T17:35:01.035Z,82.40
2023-03-27T17:39:55.776Z,82.50
2023-03-27T17:42:22.862Z,83.30
2023-03-27T17:44:51.808Z,83.80
2023-03-27T17:47:21.669Z,83.90
2023-03-27T17:49:52.822Z,84.50
2023-03-27T17:52:23.384Z,84.70
2023-03-27T17:54:50.485Z,84.80
2023-03-27T17:57:19.316Z,85.10
2023-03-27T17:59:48.807Z,85.40
2023-03-27T18:02:20.615Z,86.20
2023-03-27T18:04:52.369Z,86.40
2023-03-27T18:07:22.706Z,86.70
2023-03-27T18:09:49.850Z,87.10
2023-03-27T18:12:18.957Z,87.30
2023-03-27T18:14:45.628Z,87.30
2023-03-27T18:17:15.863Z,88.20
2023-03-27T18:19:42.496Z,88.00
2023-03-27T18:22:09.187Z,88.10
2023-03-27T18:27:02.996Z,89.30
2023-03-27T18:29:31.108Z,89.30
2023-03-27T18:32:04.727Z,89.90
2023-03-27T18:34:31.414Z,90.00
2023-03-27T18:36:58.172Z,90.40
2023-03-27T18:39:24.872Z,90.50
2023-03-27T18:41:58.627Z,90.70
2023-03-27T18:44:25.420Z,90.90
2023-03-27T18:46:52.200Z,90.90
2023-03-27T18:49:24.844Z,91.10
2023-03-27T18:51:52.343Z,91.20
2023-03-27T18:54:19.018Z,91.40
2023-03-27T18:56:45.921Z,91.50
2023-03-27T18:59:14.453Z,91.80
2023-03-27T19:01:41.304Z,91.80
2023-03-27T19:04:09.682Z,91.80
2023-03-27T19:06:39.045Z,91.90
2023-03-27T19:09:05.727Z,92.10
2023-03-27T19:11:32.451Z,92.30
2023-03-27T19:13:59.164Z,92.40
2023-03-27T19:16:25.943Z,92.60
2023-03-27T19:18:52.666Z,92.90
2023-03-27T19:21:21.472Z,93.60
2023-03-27T19:23:48.580Z,93.70
2023-03-27T19:26:17.219Z,93.80
2023-03-27T19:28:47.755Z,94.10
2023-03-27T19:31:19.383Z,94.20
2023-03-27T19:33:46.101Z,94.40
2023-03-27T19:36:12.926Z,94.70
2023-03-27T19:38:39.637Z,94.80
2023-03-27T19:41:14.209Z,95.10
2023-03-27T19:43:40.894Z,95.30
2023-03-27T19:48:50.122Z,95.80
2023-03-27T19:51:16.867Z,96.10
2023-03-27T19:53:43.611Z,96.40
2023-03-27T19:56:10.733Z,96.50
2023-03-27T19:58:39.678Z,96.50
2023-03-27T20:01:09.065Z,96.50
2023-03-27T20:03:38.384Z,96.50
2023-03-27T20:08:42.115Z,96.90
2023-03-27T20:11:11.154Z,96.80
2023-03-27T20:13:49.083Z,96.90
2023-03-27T20:16:21.509Z,97.20
2023-03-27T20:18:55.402Z,97.30
2023-03-27T20:21:25.792Z,97.40
2023-03-27T20:23:55.538Z,97.10
2023-03-27T20:26:23.693Z,97.50
2023-03-27T20:28:51.106Z,97.70
2023-03-27T20:31:21.600Z,97.90
2023-03-27T20:33:48.675Z,97.90
2023-03-27T20:36:23.231Z,98.20
2023-03-27T20:38:52.615Z,98.10
2023-03-27T20:41:20.299Z,98.30
2023-03-27T20:46:15.633Z,98.60
2023-03-27T20:48:54.157Z,98.80
2023-03-27T20:51:23.943Z,98.50
2023-03-27T20:53:55.828Z,98.60
2023-03-27T20:56:23.361Z,98.70
2023-03-27T20:58:51.412Z,98.40
2023-03-27T21:01:20.672Z,98.80
2023-03-27T21:03:50.093Z,99.00
2023-03-27T21:06:19.830Z,99.20
2023-03-27T21:08:47.399Z,99.20
2023-03-27T21:11:14.524Z,99.40
2023-03-27T21:13:41.382Z,99.70
2023-03-27T21:16:08.830Z,99.80
2023-03-27T21:18:38.006Z,99.90
2023-03-27T21:21:05.265Z,99.70
2023-03-27T21:23:36.947Z,99.90
2023-03-27T21:26:03.752Z,99.90
2023-03-27T21:28:32.644Z,99.90
2023-03-27T21:30:59.623Z,99.90
2023-03-27T21:33:26.442Z,99.90
2023-03-27T21:35:55.548Z,99.90
2023-03-27T21:38:22.262Z,99.90
2023-03-27T21:40:49.046Z,99.90
2023-03-27T21:43:16.034Z,99.90
2023-03-27T21:45:46.592Z,99.90
2023-03-27T21:48:13.338Z,99.90
2023-03-27T21:50:40.267Z,99.90
2023-03-27T21:53:06.955Z,99.90
2023-03-27T21:55:38.509Z,99.90
2023-03-27T21:58:06.300Z,99.90
2023-03-27T22:00:36.093Z,99.90
2023-03-27T22:03:03.006Z,99.90
2023-03-27T22:05:29.779Z,99.90
2023-03-27T22:07:57.650Z,99.90
2023-03-27T22:10:24.315Z,99.90
2023-03-27T22:12:50.981Z,99.90
2023-03-27T22:15:19.788Z,99.90
2023-03-27T22:17:46.575Z,99.90
2023-03-27T22:20:13.307Z,99.90
2023-03-27T22:22:40.090Z,99.90
2023-03-27T22:25:07.337Z,99.90
2023-03-27T22:27:34.320Z,99.90
2023-03-27T22:30:01.093Z,99.90
2023-03-27T22:32:30.297Z,99.90
2023-03-27T22:34:57.005Z,99.90
2023-03-27T22:37:25.162Z,99.90
2023-03-27T22:39:54.390Z,99.90
2023-03-27T22:42:23.431Z,99.90
2023-03-27T22:44:50.291Z,99.90
2023-03-27T22:47:16.960Z,99.90
2023-03-27T22:49:43.690Z,99.90
2023-03-27T22:52:10.349Z,99.90
2023-03-27T22:54:36.978Z,99.90
2023-03-27T22:57:03.821Z,99.90
2023-03-27T22:59:33.044Z,99.90
2023-03-27T23:01:59.695Z,99.90
2023-03-27T23:04:27.795Z,99.90
2023-03-27T23:06:57.060Z,99.90
2023-03-27T23:09:23.762Z,99.90
2023-03-27T23:11:52.915Z,99.90
2023-03-27T23:14:19.555Z,99.90
2023-03-27T23:16:46.305Z,99.90
2023-03-27T23:19:12.973Z,99.90
2023-03-27T23:21:39.616Z,99.90
2023-03-27T23:24:08.883Z,99.90
2023-03-27T23:26:35.580Z,99.90
2023-03-27T23:29:02.323Z,99.90
2023-03-27T23:31:28.997Z,99.90
2023-03-27T23:33:55.772Z,99.90
2023-03-27T23:36:25.077Z,99.90
2023-03-27T23:38:54.163Z,99.90
2023-03-27T23:41:21.154Z,99.90
2023-03-27T23:43:48.594Z,99.90
2023-03-27T23:46:20.013Z,99.90
2023-03-27T23:48:48.897Z,99.90
2023-03-27T23:51:19.232Z,99.90
2023-03-27T23:53:48.386Z,99.90
2023-03-27T23:58:42.798Z,99.90
